sensor_id;sensor_type;location;lat;lon;timestamp;P1;durP1;ratioP1;P2;durP2;ratioP2
8458;SDS011;4266;48.816;9.154;2023-07-31T00:00:44;6.00;;;3.07;;
8458;SDS011;4266;48.816;9.154;2023-07-31T00:03:09;3.73;;;3.10;;
8458;SDS011;4266;48.816;9.154;2023-07-31T00:05:35;7.13;;;3.00;;
8458;SDS011;4266;48.816;9.154;2023-07-31T00:08:02;4.30;;;3.13;;
8458;SDS011;4266;48.816;9.154;2023-07-31T00:10:28;10.27;;;3.23;;
8458;SDS011;4266;48.816;9.154;2023-07-31T00:12:54;5.23;;;3.13;;
8458;SDS011;4266;48.816;9.154;2023-07-31T00:15:20;5.03;;;3.03;;
8458;SDS011;4266;48.816;9.154;2023-07-31T00:17:46;6.30;;;3.30;;
8458;SDS011;4266;48.816;9.154;2023-07-31T00:20:12;5.03;;;3.27;;
8458;SDS011;4266;48.816;9.154;2023-07-31T00:22:37;4.23;;;2.90;;
8458;SDS011;4266;48.816;9.154;2023-07-31T00:25:03;4.17;;;3.03;;
8458;SDS011;4266;48.816;9.154;2023-07-31T00:27:29;3.73;;;3.30;;
8458;SDS011;4266;48.816;9.154;2023-07-31T00:29:55;7.20;;;3.27;;
8458;SDS011;4266;48.816;9.154;2023-07-31T00:32:20;4.43;;;2.93;;
8458;SDS011;4266;48.816;9.154;2023-07-31T00:34:47;4.53;;;3.70;;
8458;SDS011;4266;48.816;9.154;2023-07-31T00:37:13;4.57;;;2.87;;
8458;SDS011;4266;48.816;9.154;2023-07-31T00:39:38;6.73;;;3.40;;
8458;SDS011;4266;48.816;9.154;2023-07-31T00:42:05;6.73;;;3.10;;
8458;SDS011;4266;48.816;9.154;2023-07-31T00:44:32;3.60;;;3.13;;
8458;SDS011;4266;48.816;9.154;2023-07-31T00:46:57;6.60;;;3.07;;
8458;SDS011;4266;48.816;9.154;2023-07-31T00:49:23;6.13;;;3.07;;
8458;SDS011;4266;48.816;9.154;2023-07-31T00:51:49;5.77;;;3.10;;
8458;SDS011;4266;48.816;9.154;2023-07-31T00:54:14;4.53;;;2.83;;
8458;SDS011;4266;48.816;9.154;2023-07-31T00:56:40;4.07;;;3.10;;
8458;SDS011;4266;48.816;9.154;2023-07-31T00:59:06;4.43;;;2.70;;
8458;SDS011;4266;48.816;9.154;2023-07-31T01:01:31;7.53;;;3.70;;
8458;SDS011;4266;48.816;9.154;2023-07-31T01:03:57;4.17;;;3.00;;
8458;SDS011;4266;48.816;9.154;2023-07-31T01:06:43;3.10;;;2.87;;
8458;SDS011;4266;48.816;9.154;2023-07-31T01:09:10;4.07;;;3.07;;
8458;SDS011;4266;48.816;9.154;2023-07-31T01:11:34;5.03;;;3.53;;
8458;SDS011;4266;48.816;9.154;2023-07-31T01:14:00;5.53;;;2.90;;
8458;SDS011;4266;48.816;9.154;2023-07-31T01:16:26;6.00;;;3.27;;
8458;SDS011;4266;48.816;9.154;2023-07-31T01:18:52;6.90;;;2.93;;
8458;SDS011;4266;48.816;9.154;2023-07-31T01:21:23;6.80;;;3.40;;
8458;SDS011;4266;48.816;9.154;2023-07-31T01:24:01;11.13;;;2.53;;
8458;SDS011;4266;48.816;9.154;2023-07-31T01:26:23;4.93;;;2.57;;
8458;SDS011;4266;48.816;9.154;2023-07-31T01:28:53;6.00;;;2.90;;
8458;SDS011;4266;48.816;9.154;2023-07-31T01:31:20;6.10;;;4.10;;
8458;SDS011;4266;48.816;9.154;2023-07-31T01:33:45;10.77;;;7.00;;
8458;SDS011;4266;48.816;9.154;2023-07-31T01:36:11;9.57;;;4.80;;
8458;SDS011;4266;48.816;9.154;2023-07-31T01:38:37;5.07;;;3.37;;
8458;SDS011;4266;48.816;9.154;2023-07-31T01:41:03;5.47;;;2.87;;
8458;SDS011;4266;48.816;9.154;2023-07-31T01:43:29;6.23;;;3.17;;
8458;SDS011;4266;48.816;9.154;2023-07-31T01:45:55;6.07;;;3.10;;
8458;SDS011;4266;48.816;9.154;2023-07-31T01:48:21;5.80;;;3.07;;
8458;SDS011;4266;48.816;9.154;2023-07-31T01:50:46;5.60;;;2.90;;
8458;SDS011;4266;48.816;9.154;2023-07-31T01:53:12;3.13;;;2.70;;
8458;SDS011;4266;48.816;9.154;2023-07-31T01:55:38;5.83;;;2.87;;
8458;SDS011;4266;48.816;9.154;2023-07-31T01:58:03;3.77;;;2.67;;
8458;SDS011;4266;48.816;9.154;2023-07-31T02:00:29;7.63;;;2.93;;
8458;SDS011;4266;48.816;9.154;2023-07-31T02:02:55;4.63;;;3.00;;
8458;SDS011;4266;48.816;9.154;2023-07-31T02:05:20;4.00;;;2.80;;
8458;SDS011;4266;48.816;9.154;2023-07-31T02:07:46;5.23;;;2.87;;
8458;SDS011;4266;48.816;9.154;2023-07-31T02:10:12;4.00;;;2.77;;
8458;SDS011;4266;48.816;9.154;2023-07-31T02:12:38;5.70;;;2.73;;
8458;SDS011;4266;48.816;9.154;2023-07-31T02:15:05;4.80;;;3.07;;
8458;SDS011;4266;48.816;9.154;2023-07-31T02:17:31;5.80;;;3.13;;
8458;SDS011;4266;48.816;9.154;2023-07-31T02:19:57;3.00;;;2.60;;
8458;SDS011;4266;48.816;9.154;2023-07-31T02:22:22;5.40;;;2.90;;
8458;SDS011;4266;48.816;9.154;2023-07-31T02:24:48;5.60;;;3.23;;
8458;SDS011;4266;48.816;9.154;2023-07-31T02:27:14;3.27;;;2.80;;
8458;SDS011;4266;48.816;9.154;2023-07-31T02:29:40;6.67;;;3.00;;
8458;SDS011;4266;48.816;9.154;2023-07-31T02:32:06;3.13;;;2.67;;
8458;SDS011;4266;48.816;9.154;2023-07-31T02:34:31;4.20;;;2.77;;
8458;SDS011;4266;48.816;9.154;2023-07-31T02:36:57;6.27;;;2.97;;
8458;SDS011;4266;48.816;9.154;2023-07-31T02:39:23;5.33;;;3.00;;
8458;SDS011;4266;48.816;9.154;2023-07-31T02:41:48;7.53;;;3.00;;
8458;SDS011;4266;48.816;9.154;2023-07-31T02:44:14;7.23;;;3.30;;
8458;SDS011;4266;48.816;9.154;2023-07-31T02:46:41;5.63;;;2.53;;
8458;SDS011;4266;48.816;9.154;2023-07-31T02:49:07;8.47;;;3.10;;
8458;SDS011;4266;48.816;9.154;2023-07-31T02:51:33;3.77;;;2.97;;
8458;SDS011;4266;48.816;9.154;2023-07-31T02:53:58;4.37;;;2.73;;
8458;SDS011;4266;48.816;9.154;2023-07-31T02:56:24;6.23;;;2.53;;
8458;SDS011;4266;48.816;9.154;2023-07-31T02:58:50;5.77;;;2.97;;
8458;SDS011;4266;48.816;9.154;2023-07-31T03:01:16;4.47;;;2.90;;
8458;SDS011;4266;48.816;9.154;2023-07-31T03:03:42;6.30;;;2.83;;
8458;SDS011;4266;48.816;9.154;2023-07-31T03:06:07;4.20;;;3.03;;
8458;SDS011;4266;48.816;9.154;2023-07-31T03:08:33;4.60;;;3.00;;
8458;SDS011;4266;48.816;9.154;2023-07-31T03:10:59;5.43;;;3.20;;
8458;SDS011;4266;48.816;9.154;2023-07-31T03:13:24;5.13;;;2.93;;
8458;SDS011;4266;48.816;9.154;2023-07-31T03:15:50;4.03;;;2.90;;
8458;SDS011;4266;48.816;9.154;2023-07-31T03:18:16;4.40;;;2.93;;
8458;SDS011;4266;48.816;9.154;2023-07-31T03:20:42;5.37;;;2.80;;
8458;SDS011;4266;48.816;9.154;2023-07-31T03:23:07;3.60;;;2.90;;
8458;SDS011;4266;48.816;9.154;2023-07-31T03:25:33;3.23;;;2.90;;
8458;SDS011;4266;48.816;9.154;2023-07-31T03:27:59;5.40;;;2.67;;
8458;SDS011;4266;48.816;9.154;2023-07-31T03:30:25;5.10;;;3.17;;
8458;SDS011;4266;48.816;9.154;2023-07-31T03:32:50;3.50;;;3.00;;
8458;SDS011;4266;48.816;9.154;2023-07-31T03:35:16;8.97;;;3.10;;
8458;SDS011;4266;48.816;9.154;2023-07-31T03:37:42;3.40;;;2.53;;
8458;SDS011;4266;48.816;9.154;2023-07-31T03:40:08;3.23;;;2.90;;
8458;SDS011;4266;48.816;9.154;2023-07-31T03:42:36;6.07;;;3.00;;
8458;SDS011;4266;48.816;9.154;2023-07-31T03:45:02;3.37;;;2.70;;
8458;SDS011;4266;48.816;9.154;2023-07-31T03:47:28;3.33;;;2.50;;
8458;SDS011;4266;48.816;9.154;2023-07-31T03:49:54;7.50;;;3.30;;
8458;SDS011;4266;48.816;9.154;2023-07-31T03:52:20;8.10;;;3.03;;
8458;SDS011;4266;48.816;9.154;2023-07-31T03:54:45;6.50;;;2.90;;
8458;SDS011;4266;48.816;9.154;2023-07-31T03:57:11;3.13;;;2.70;;
8458;SDS011;4266;48.816;9.154;2023-07-31T03:59:37;6.90;;;2.57;;
8458;SDS011;4266;48.816;9.154;2023-07-31T04:02:03;6.67;;;3.13;;
8458;SDS011;4266;48.816;9.154;2023-07-31T04:04:29;4.07;;;2.60;;
8458;SDS011;4266;48.816;9.154;2023-07-31T04:06:54;5.50;;;3.20;;
8458;SDS011;4266;48.816;9.154;2023-07-31T04:09:21;4.23;;;2.90;;
8458;SDS011;4266;48.816;9.154;2023-07-31T04:11:46;5.50;;;3.00;;
8458;SDS011;4266;48.816;9.154;2023-07-31T04:14:12;6.33;;;2.80;;
8458;SDS011;4266;48.816;9.154;2023-07-31T04:16:38;2.97;;;2.63;;
8458;SDS011;4266;48.816;9.154;2023-07-31T04:19:03;6.73;;;2.83;;
8458;SDS011;4266;48.816;9.154;2023-07-31T04:21:30;5.07;;;2.63;;
8458;SDS011;4266;48.816;9.154;2023-07-31T04:23:56;3.87;;;2.83;;
8458;SDS011;4266;48.816;9.154;2023-07-31T04:26:22;4.03;;;2.60;;
8458;SDS011;4266;48.816;9.154;2023-07-31T04:28:47;5.40;;;2.80;;
8458;SDS011;4266;48.816;9.154;2023-07-31T04:31:14;3.60;;;2.87;;
8458;SDS011;4266;48.816;9.154;2023-07-31T04:33:39;6.37;;;2.80;;
8458;SDS011;4266;48.816;9.154;2023-07-31T04:36:05;5.53;;;2.73;;
8458;SDS011;4266;48.816;9.154;2023-07-31T04:38:31;7.70;;;2.67;;
8458;SDS011;4266;48.816;9.154;2023-07-31T04:40:56;5.83;;;3.07;;
8458;SDS011;4266;48.816;9.154;2023-07-31T04:43:22;4.00;;;2.50;;
8458;SDS011;4266;48.816;9.154;2023-07-31T04:45:48;3.90;;;2.63;;
8458;SDS011;4266;48.816;9.154;2023-07-31T04:48:14;5.20;;;2.83;;
8458;SDS011;4266;48.816;9.154;2023-07-31T04:50:40;5.60;;;2.73;;
8458;SDS011;4266;48.816;9.154;2023-07-31T04:53:05;5.10;;;3.00;;
8458;SDS011;4266;48.816;9.154;2023-07-31T04:55:31;5.10;;;2.70;;
8458;SDS011;4266;48.816;9.154;2023-07-31T04:57:58;4.63;;;2.77;;
8458;SDS011;4266;48.816;9.154;2023-07-31T05:00:23;3.63;;;2.30;;
8458;SDS011;4266;48.816;9.154;2023-07-31T05:02:49;3.30;;;2.60;;
8458;SDS011;4266;48.816;9.154;2023-07-31T05:05:15;7.90;;;2.80;;
8458;SDS011;4266;48.816;9.154;2023-07-31T05:07:41;2.40;;;2.20;;
8458;SDS011;4266;48.816;9.154;2023-07-31T05:10:07;4.17;;;2.70;;
8458;SDS011;4266;48.816;9.154;2023-07-31T05:12:33;3.30;;;2.50;;
8458;SDS011;4266;48.816;9.154;2023-07-31T05:14:59;5.80;;;2.43;;
8458;SDS011;4266;48.816;9.154;2023-07-31T05:17:26;7.87;;;2.77;;
8458;SDS011;4266;48.816;9.154;2023-07-31T05:19:52;3.90;;;2.67;;
8458;SDS011;4266;48.816;9.154;2023-07-31T05:22:18;4.27;;;2.57;;
8458;SDS011;4266;48.816;9.154;2023-07-31T05:24:43;4.37;;;2.50;;
8458;SDS011;4266;48.816;9.154;2023-07-31T05:27:10;5.53;;;2.97;;
8458;SDS011;4266;48.816;9.154;2023-07-31T05:29:36;6.20;;;2.97;;
8458;SDS011;4266;48.816;9.154;2023-07-31T05:32:02;4.83;;;2.80;;
8458;SDS011;4266;48.816;9.154;2023-07-31T05:34:28;5.07;;;3.37;;
8458;SDS011;4266;48.816;9.154;2023-07-31T05:36:54;5.37;;;2.97;;
8458;SDS011;4266;48.816;9.154;2023-07-31T05:39:20;2.80;;;2.60;;
8458;SDS011;4266;48.816;9.154;2023-07-31T05:41:45;2.80;;;2.53;;
8458;SDS011;4266;48.816;9.154;2023-07-31T05:44:11;8.20;;;2.77;;
8458;SDS011;4266;48.816;9.154;2023-07-31T05:46:37;3.22;;;2.47;;
8458;SDS011;4266;48.816;9.154;2023-07-31T05:49:02;6.97;;;3.10;;
8458;SDS011;4266;48.816;9.154;2023-07-31T05:51:28;5.03;;;3.00;;
8458;SDS011;4266;48.816;9.154;2023-07-31T05:53:54;4.78;;;2.78;;
8458;SDS011;4266;48.816;9.154;2023-07-31T05:56:19;4.53;;;3.00;;
8458;SDS011;4266;48.816;9.154;2023-07-31T05:58:46;5.53;;;2.65;;
8458;SDS011;4266;48.816;9.154;2023-07-31T06:01:12;2.85;;;2.53;;
8458;SDS011;4266;48.816;9.154;2023-07-31T06:03:37;7.55;;;2.83;;
8458;SDS011;4266;48.816;9.154;2023-07-31T06:06:03;4.85;;;2.90;;
8458;SDS011;4266;48.816;9.154;2023-07-31T06:08:29;3.97;;;3.00;;
8458;SDS011;4266;48.816;9.154;2023-07-31T06:10:54;6.03;;;2.60;;
8458;SDS011;4266;48.816;9.154;2023-07-31T06:13:21;4.10;;;2.83;;
8458;SDS011;4266;48.816;9.154;2023-07-31T06:15:47;6.50;;;2.75;;
8458;SDS011;4266;48.816;9.154;2023-07-31T06:18:13;3.53;;;2.58;;
8458;SDS011;4266;48.816;9.154;2023-07-31T06:20:39;7.15;;;2.85;;
8458;SDS011;4266;48.816;9.154;2023-07-31T06:23:04;5.40;;;2.80;;
8458;SDS011;4266;48.816;9.154;2023-07-31T06:25:30;5.60;;;2.60;;
8458;SDS011;4266;48.816;9.154;2023-07-31T06:27:56;3.62;;;2.42;;
8458;SDS011;4266;48.816;9.154;2023-07-31T06:30:22;5.00;;;3.08;;
8458;SDS011;4266;48.816;9.154;2023-07-31T06:32:47;7.30;;;2.65;;
8458;SDS011;4266;48.816;9.154;2023-07-31T06:35:13;2.60;;;2.40;;
8458;SDS011;4266;48.816;9.154;2023-07-31T06:37:38;4.93;;;3.20;;
8458;SDS011;4266;48.816;9.154;2023-07-31T06:40:06;5.18;;;2.75;;
8458;SDS011;4266;48.816;9.154;2023-07-31T06:42:33;3.90;;;2.70;;
8458;SDS011;4266;48.816;9.154;2023-07-31T06:44:59;5.87;;;2.75;;
8458;SDS011;4266;48.816;9.154;2023-07-31T06:47:25;5.45;;;2.67;;
8458;SDS011;4266;48.816;9.154;2023-07-31T06:49:51;2.55;;;2.25;;
8458;SDS011;4266;48.816;9.154;2023-07-31T06:52:16;6.22;;;2.60;;
8458;SDS011;4266;48.816;9.154;2023-07-31T06:54:44;5.53;;;2.50;;
8458;SDS011;4266;48.816;9.154;2023-07-31T06:57:10;9.70;;;2.65;;
8458;SDS011;4266;48.816;9.154;2023-07-31T06:59:36;4.43;;;2.67;;
8458;SDS011;4266;48.816;9.154;2023-07-31T07:02:02;3.15;;;2.37;;
8458;SDS011;4266;48.816;9.154;2023-07-31T07:04:27;4.43;;;2.72;;
8458;SDS011;4266;48.816;9.154;2023-07-31T07:06:53;3.30;;;2.40;;
8458;SDS011;4266;48.816;9.154;2023-07-31T07:09:19;4.53;;;2.53;;
8458;SDS011;4266;48.816;9.154;2023-07-31T07:11:44;8.00;;;2.95;;
8458;SDS011;4266;48.816;9.154;2023-07-31T07:14:10;5.60;;;2.70;;
8458;SDS011;4266;48.816;9.154;2023-07-31T07:16:36;4.55;;;2.87;;
8458;SDS011;4266;48.816;9.154;2023-07-31T07:19:01;5.60;;;2.50;;
8458;SDS011;4266;48.816;9.154;2023-07-31T07:21:27;7.43;;;2.72;;
8458;SDS011;4266;48.816;9.154;2023-07-31T07:23:53;4.25;;;2.53;;
8458;SDS011;4266;48.816;9.154;2023-07-31T07:26:19;4.45;;;2.67;;
8458;SDS011;4266;48.816;9.154;2023-07-31T07:28:45;4.82;;;2.80;;
8458;SDS011;4266;48.816;9.154;2023-07-31T07:31:10;4.10;;;2.92;;
8458;SDS011;4266;48.816;9.154;2023-07-31T07:33:36;5.85;;;2.97;;
8458;SDS011;4266;48.816;9.154;2023-07-31T07:36:03;5.62;;;3.00;;
8458;SDS011;4266;48.816;9.154;2023-07-31T07:38:29;4.10;;;2.90;;
8458;SDS011;4266;48.816;9.154;2023-07-31T07:40:54;5.03;;;3.03;;
8458;SDS011;4266;48.816;9.154;2023-07-31T07:43:20;4.37;;;3.25;;
8458;SDS011;4266;48.816;9.154;2023-07-31T07:45:46;4.93;;;2.97;;
8458;SDS011;4266;48.816;9.154;2023-07-31T07:48:12;4.28;;;2.67;;
8458;SDS011;4266;48.816;9.154;2023-07-31T07:50:38;3.67;;;2.90;;
8458;SDS011;4266;48.816;9.154;2023-07-31T07:53:04;4.93;;;3.05;;
8458;SDS011;4266;48.816;9.154;2023-07-31T07:55:30;3.62;;;2.87;;
8458;SDS011;4266;48.816;9.154;2023-07-31T07:57:56;6.70;;;3.00;;
8458;SDS011;4266;48.816;9.154;2023-07-31T08:00:22;4.07;;;2.83;;
8458;SDS011;4266;48.816;9.154;2023-07-31T08:02:47;4.70;;;2.85;;
8458;SDS011;4266;48.816;9.154;2023-07-31T08:05:13;5.60;;;2.90;;
8458;SDS011;4266;48.816;9.154;2023-07-31T08:07:39;6.35;;;3.05;;
8458;SDS011;4266;48.816;9.154;2023-07-31T08:10:05;3.62;;;2.92;;
8458;SDS011;4266;48.816;9.154;2023-07-31T08:12:31;5.40;;;3.00;;
8458;SDS011;4266;48.816;9.154;2023-07-31T08:14:58;4.85;;;3.30;;
8458;SDS011;4266;48.816;9.154;2023-07-31T08:17:24;5.95;;;3.25;;
8458;SDS011;4266;48.816;9.154;2023-07-31T08:19:50;4.15;;;3.08;;
8458;SDS011;4266;48.816;9.154;2023-07-31T08:22:16;7.32;;;3.20;;
8458;SDS011;4266;48.816;9.154;2023-07-31T08:24:42;6.60;;;3.40;;
8458;SDS011;4266;48.816;9.154;2023-07-31T08:27:08;3.85;;;3.00;;
8458;SDS011;4266;48.816;9.154;2023-07-31T08:29:34;4.55;;;3.30;;
8458;SDS011;4266;48.816;9.154;2023-07-31T08:32:00;4.60;;;3.17;;
8458;SDS011;4266;48.816;9.154;2023-07-31T08:34:25;6.00;;;3.17;;
8458;SDS011;4266;48.816;9.154;2023-07-31T08:36:52;4.05;;;2.83;;
8458;SDS011;4266;48.816;9.154;2023-07-31T08:39:17;4.95;;;3.10;;
8458;SDS011;4266;48.816;9.154;2023-07-31T08:41:43;6.62;;;3.40;;
8458;SDS011;4266;48.816;9.154;2023-07-31T08:44:10;4.72;;;3.05;;
8458;SDS011;4266;48.816;9.154;2023-07-31T08:46:35;6.25;;;3.10;;
8458;SDS011;4266;48.816;9.154;2023-07-31T08:49:02;5.47;;;2.90;;
8458;SDS011;4266;48.816;9.154;2023-07-31T08:51:27;7.03;;;3.30;;
8458;SDS011;4266;48.816;9.154;2023-07-31T08:53:53;4.82;;;3.33;;
8458;SDS011;4266;48.816;9.154;2023-07-31T08:56:18;4.30;;;3.08;;
8458;SDS011;4266;48.816;9.154;2023-07-31T08:58:44;5.37;;;3.00;;
8458;SDS011;4266;48.816;9.154;2023-07-31T09:01:09;4.93;;;3.22;;
8458;SDS011;4266;48.816;9.154;2023-07-31T09:03:35;5.60;;;3.10;;
8458;SDS011;4266;48.816;9.154;2023-07-31T09:06:01;6.45;;;3.33;;
8458;SDS011;4266;48.816;9.154;2023-07-31T09:08:27;7.60;;;3.37;;
8458;SDS011;4266;48.816;9.154;2023-07-31T09:10:53;6.50;;;3.70;;
8458;SDS011;4266;48.816;9.154;2023-07-31T09:13:19;4.53;;;3.03;;
8458;SDS011;4266;48.816;9.154;2023-07-31T09:15:45;4.30;;;3.05;;
8458;SDS011;4266;48.816;9.154;2023-07-31T09:18:10;3.58;;;2.90;;
8458;SDS011;4266;48.816;9.154;2023-07-31T09:20:36;4.28;;;2.85;;
8458;SDS011;4266;48.816;9.154;2023-07-31T09:23:05;4.15;;;3.00;;
8458;SDS011;4266;48.816;9.154;2023-07-31T09:25:33;5.50;;;3.15;;
8458;SDS011;4266;48.816;9.154;2023-07-31T09:27:59;5.97;;;3.12;;
8458;SDS011;4266;48.816;9.154;2023-07-31T09:30:24;4.12;;;2.80;;
8458;SDS011;4266;48.816;9.154;2023-07-31T09:32:51;3.47;;;2.85;;
8458;SDS011;4266;48.816;9.154;2023-07-31T09:35:20;4.53;;;3.30;;
8458;SDS011;4266;48.816;9.154;2023-07-31T09:37:49;7.05;;;3.08;;
8458;SDS011;4266;48.816;9.154;2023-07-31T09:40:24;5.97;;;3.40;;
8458;SDS011;4266;48.816;9.154;2023-07-31T09:42:40;6.93;;;3.10;;
8458;SDS011;4266;48.816;9.154;2023-07-31T09:45:07;6.12;;;3.78;;
8458;SDS011;4266;48.816;9.154;2023-07-31T09:47:34;6.20;;;3.20;;
8458;SDS011;4266;48.816;9.154;2023-07-31T09:50:00;8.95;;;3.90;;
8458;SDS011;4266;48.816;9.154;2023-07-31T09:52:26;6.18;;;3.50;;
8458;SDS011;4266;48.816;9.154;2023-07-31T09:54:52;4.68;;;3.50;;
8458;SDS011;4266;48.816;9.154;2023-07-31T09:57:18;3.55;;;3.20;;
8458;SDS011;4266;48.816;9.154;2023-07-31T09:59:45;5.68;;;3.35;;
8458;SDS011;4266;48.816;9.154;2023-07-31T10:02:10;4.82;;;3.22;;
8458;SDS011;4266;48.816;9.154;2023-07-31T10:04:36;7.87;;;3.33;;
8458;SDS011;4266;48.816;9.154;2023-07-31T10:07:01;10.45;;;4.10;;
8458;SDS011;4266;48.816;9.154;2023-07-31T10:09:27;5.72;;;3.45;;
8458;SDS011;4266;48.816;9.154;2023-07-31T10:11:55;3.20;;;2.80;;
8458;SDS011;4266;48.816;9.154;2023-07-31T10:14:19;3.22;;;2.92;;
8458;SDS011;4266;48.816;9.154;2023-07-31T10:16:44;9.45;;;5.40;;
8458;SDS011;4266;48.816;9.154;2023-07-31T10:19:10;6.55;;;4.18;;
8458;SDS011;4266;48.816;9.154;2023-07-31T10:21:35;7.15;;;3.55;;
8458;SDS011;4266;48.816;9.154;2023-07-31T10:24:03;6.78;;;4.10;;
8458;SDS011;4266;48.816;9.154;2023-07-31T10:26:29;3.97;;;3.33;;
8458;SDS011;4266;48.816;9.154;2023-07-31T10:28:55;6.55;;;3.30;;
8458;SDS011;4266;48.816;9.154;2023-07-31T10:31:21;4.95;;;3.53;;
8458;SDS011;4266;48.816;9.154;2023-07-31T10:33:46;6.32;;;4.00;;
8458;SDS011;4266;48.816;9.154;2023-07-31T10:36:13;6.20;;;3.10;;
8458;SDS011;4266;48.816;9.154;2023-07-31T10:38:38;7.18;;;3.60;;
8458;SDS011;4266;48.816;9.154;2023-07-31T10:41:08;5.28;;;3.60;;
8458;SDS011;4266;48.816;9.154;2023-07-31T10:43:33;4.72;;;3.40;;
8458;SDS011;4266;48.816;9.154;2023-07-31T10:45:59;6.15;;;3.50;;
8458;SDS011;4266;48.816;9.154;2023-07-31T10:48:24;5.25;;;3.60;;
8458;SDS011;4266;48.816;9.154;2023-07-31T10:50:51;4.75;;;3.22;;
8458;SDS011;4266;48.816;9.154;2023-07-31T10:53:25;7.15;;;3.35;;
8458;SDS011;4266;48.816;9.154;2023-07-31T10:55:51;3.85;;;3.35;;
8458;SDS011;4266;48.816;9.154;2023-07-31T10:58:18;6.40;;;3.37;;
8458;SDS011;4266;48.816;9.154;2023-07-31T11:00:44;5.87;;;3.90;;
8458;SDS011;4266;48.816;9.154;2023-07-31T11:03:10;4.87;;;3.40;;
8458;SDS011;4266;48.816;9.154;2023-07-31T11:05:50;5.00;;;3.58;;
8458;SDS011;4266;48.816;9.154;2023-07-31T11:08:20;6.25;;;3.90;;
8458;SDS011;4266;48.816;9.154;2023-07-31T11:10:50;7.05;;;4.10;;
8458;SDS011;4266;48.816;9.154;2023-07-31T11:13:15;6.25;;;3.55;;
8458;SDS011;4266;48.816;9.154;2023-07-31T11:15:40;6.82;;;3.33;;
8458;SDS011;4266;48.816;9.154;2023-07-31T11:18:06;6.00;;;3.30;;
8458;SDS011;4266;48.816;9.154;2023-07-31T11:20:32;6.50;;;3.78;;
8458;SDS011;4266;48.816;9.154;2023-07-31T11:22:59;6.65;;;3.55;;
8458;SDS011;4266;48.816;9.154;2023-07-31T11:25:24;5.85;;;3.67;;
8458;SDS011;4266;48.816;9.154;2023-07-31T11:27:50;5.15;;;3.33;;
8458;SDS011;4266;48.816;9.154;2023-07-31T11:30:18;7.30;;;3.70;;
8458;SDS011;4266;48.816;9.154;2023-07-31T11:32:42;6.97;;;3.60;;
8458;SDS011;4266;48.816;9.154;2023-07-31T11:35:11;5.75;;;3.60;;
8458;SDS011;4266;48.816;9.154;2023-07-31T11:37:38;3.62;;;3.12;;
8458;SDS011;4266;48.816;9.154;2023-07-31T11:40:07;5.28;;;3.40;;
8458;SDS011;4266;48.816;9.154;2023-07-31T11:42:34;7.85;;;3.65;;
8458;SDS011;4266;48.816;9.154;2023-07-31T11:45:01;6.30;;;3.75;;
8458;SDS011;4266;48.816;9.154;2023-07-31T11:47:25;4.18;;;3.50;;
8458;SDS011;4266;48.816;9.154;2023-07-31T11:49:50;4.68;;;3.15;;
8458;SDS011;4266;48.816;9.154;2023-07-31T11:52:17;6.45;;;3.90;;
8458;SDS011;4266;48.816;9.154;2023-07-31T11:54:42;4.12;;;3.30;;
8458;SDS011;4266;48.816;9.154;2023-07-31T11:57:08;6.20;;;3.58;;
8458;SDS011;4266;48.816;9.154;2023-07-31T11:59:34;4.60;;;3.30;;
8458;SDS011;4266;48.816;9.154;2023-07-31T12:01:59;7.03;;;3.80;;
8458;SDS011;4266;48.816;9.154;2023-07-31T12:04:25;4.18;;;3.60;;
8458;SDS011;4266;48.816;9.154;2023-07-31T12:06:52;7.32;;;3.53;;
8458;SDS011;4266;48.816;9.154;2023-07-31T12:09:16;7.32;;;3.62;;
8458;SDS011;4266;48.816;9.154;2023-07-31T12:11:43;4.40;;;3.50;;
8458;SDS011;4266;48.816;9.154;2023-07-31T12:14:08;4.37;;;3.47;;
8458;SDS011;4266;48.816;9.154;2023-07-31T12:16:33;4.85;;;3.58;;
8458;SDS011;4266;48.816;9.154;2023-07-31T12:19:01;5.70;;;3.30;;
8458;SDS011;4266;48.816;9.154;2023-07-31T12:21:27;5.55;;;3.75;;
8458;SDS011;4266;48.816;9.154;2023-07-31T12:23:52;7.45;;;4.10;;
8458;SDS011;4266;48.816;9.154;2023-07-31T12:26:18;7.93;;;4.00;;
8458;SDS011;4266;48.816;9.154;2023-07-31T12:28:44;5.53;;;3.90;;
8458;SDS011;4266;48.816;9.154;2023-07-31T12:31:11;6.03;;;3.80;;
8458;SDS011;4266;48.816;9.154;2023-07-31T12:33:36;4.87;;;3.45;;
8458;SDS011;4266;48.816;9.154;2023-07-31T12:36:03;6.07;;;3.60;;
8458;SDS011;4266;48.816;9.154;2023-07-31T12:38:29;6.90;;;3.80;;
8458;SDS011;4266;48.816;9.154;2023-07-31T12:40:54;6.43;;;3.83;;
8458;SDS011;4266;48.816;9.154;2023-07-31T12:43:20;4.70;;;3.83;;
8458;SDS011;4266;48.816;9.154;2023-07-31T12:45:45;4.03;;;3.58;;
8458;SDS011;4266;48.816;9.154;2023-07-31T12:48:11;4.78;;;3.60;;
8458;SDS011;4266;48.816;9.154;2023-07-31T12:50:37;3.83;;;3.47;;
8458;SDS011;4266;48.816;9.154;2023-07-31T12:53:03;7.20;;;4.22;;
8458;SDS011;4266;48.816;9.154;2023-07-31T12:55:29;4.30;;;3.90;;
8458;SDS011;4266;48.816;9.154;2023-07-31T12:57:55;6.00;;;3.95;;
8458;SDS011;4266;48.816;9.154;2023-07-31T13:00:21;6.15;;;4.18;;
8458;SDS011;4266;48.816;9.154;2023-07-31T13:02:46;5.40;;;3.65;;
8458;SDS011;4266;48.816;9.154;2023-07-31T13:05:12;4.90;;;4.03;;
8458;SDS011;4266;48.816;9.154;2023-07-31T13:07:38;5.32;;;3.87;;
8458;SDS011;4266;48.816;9.154;2023-07-31T13:10:04;4.25;;;3.40;;
8458;SDS011;4266;48.816;9.154;2023-07-31T13:12:31;5.57;;;3.33;;
8458;SDS011;4266;48.816;9.154;2023-07-31T13:14:56;6.65;;;3.50;;
8458;SDS011;4266;48.816;9.154;2023-07-31T13:17:22;5.40;;;4.00;;
8458;SDS011;4266;48.816;9.154;2023-07-31T13:19:48;5.75;;;3.78;;
8458;SDS011;4266;48.816;9.154;2023-07-31T13:22:13;4.70;;;3.45;;
8458;SDS011;4266;48.816;9.154;2023-07-31T13:24:39;5.40;;;3.83;;
8458;SDS011;4266;48.816;9.154;2023-07-31T13:27:06;6.50;;;3.42;;
8458;SDS011;4266;48.816;9.154;2023-07-31T13:29:31;3.85;;;3.35;;
8458;SDS011;4266;48.816;9.154;2023-07-31T13:31:57;4.70;;;3.47;;
8458;SDS011;4266;48.816;9.154;2023-07-31T13:34:23;5.95;;;3.40;;
8458;SDS011;4266;48.816;9.154;2023-07-31T13:36:48;4.20;;;3.30;;
8458;SDS011;4266;48.816;9.154;2023-07-31T13:39:15;4.68;;;2.95;;
8458;SDS011;4266;48.816;9.154;2023-07-31T13:41:40;5.32;;;3.25;;
8458;SDS011;4266;48.816;9.154;2023-07-31T13:44:07;4.20;;;3.45;;
8458;SDS011;4266;48.816;9.154;2023-07-31T13:46:33;5.30;;;3.40;;
8458;SDS011;4266;48.816;9.154;2023-07-31T13:48:59;4.62;;;3.30;;
8458;SDS011;4266;48.816;9.154;2023-07-31T13:51:25;4.82;;;3.30;;
8458;SDS011;4266;48.816;9.154;2023-07-31T13:53:50;4.00;;;3.60;;
8458;SDS011;4266;48.816;9.154;2023-07-31T13:56:16;3.60;;;3.10;;
8458;SDS011;4266;48.816;9.154;2023-07-31T13:58:41;4.72;;;3.47;;
8458;SDS011;4266;48.816;9.154;2023-07-31T14:01:07;3.55;;;3.22;;
8458;SDS011;4266;48.816;9.154;2023-07-31T14:03:33;4.82;;;3.30;;
8458;SDS011;4266;48.816;9.154;2023-07-31T14:05:58;3.65;;;3.30;;
8458;SDS011;4266;48.816;9.154;2023-07-31T14:08:25;4.72;;;3.17;;
8458;SDS011;4266;48.816;9.154;2023-07-31T14:10:50;4.93;;;3.28;;
8458;SDS011;4266;48.816;9.154;2023-07-31T14:13:16;5.25;;;3.37;;
8458;SDS011;4266;48.816;9.154;2023-07-31T14:15:42;3.92;;;3.35;;
8458;SDS011;4266;48.816;9.154;2023-07-31T14:18:07;6.40;;;3.42;;
8458;SDS011;4266;48.816;9.154;2023-07-31T14:20:33;5.93;;;3.37;;
8458;SDS011;4266;48.816;9.154;2023-07-31T14:22:59;3.55;;;3.22;;
8458;SDS011;4266;48.816;9.154;2023-07-31T14:25:24;5.78;;;3.20;;
8458;SDS011;4266;48.816;9.154;2023-07-31T14:27:50;4.10;;;3.30;;
8458;SDS011;4266;48.816;9.154;2023-07-31T14:30:16;4.35;;;3.60;;
8458;SDS011;4266;48.816;9.154;2023-07-31T14:32:42;4.28;;;3.42;;
8458;SDS011;4266;48.816;9.154;2023-07-31T14:35:08;5.55;;;3.10;;
8458;SDS011;4266;48.816;9.154;2023-07-31T14:37:37;6.28;;;3.33;;
8458;SDS011;4266;48.816;9.154;2023-07-31T14:40:02;3.67;;;3.08;;
8458;SDS011;4266;48.816;9.154;2023-07-31T14:42:28;6.62;;;3.67;;
8458;SDS011;4266;48.816;9.154;2023-07-31T14:44:54;7.20;;;3.60;;
8458;SDS011;4266;48.816;9.154;2023-07-31T14:47:20;5.10;;;3.28;;
8458;SDS011;4266;48.816;9.154;2023-07-31T14:49:46;4.00;;;3.22;;
8458;SDS011;4266;48.816;9.154;2023-07-31T14:52:11;4.82;;;3.25;;
8458;SDS011;4266;48.816;9.154;2023-07-31T14:54:37;5.12;;;3.58;;
8458;SDS011;4266;48.816;9.154;2023-07-31T14:57:04;6.65;;;3.25;;
8458;SDS011;4266;48.816;9.154;2023-07-31T14:59:31;6.07;;;3.60;;
8458;SDS011;4266;48.816;9.154;2023-07-31T15:01:56;4.12;;;3.30;;
8458;SDS011;4266;48.816;9.154;2023-07-31T15:04:22;4.37;;;3.47;;
8458;SDS011;4266;48.816;9.154;2023-07-31T15:06:48;3.67;;;3.28;;